sensor_id;sensor_type;location;lat;lon;timestamp;P1;durP1;ratioP1;P2;durP2;ratioP2
73487;SDS011;61721;42.206;25.320;2024-02-23T00:00:27;10.60;;;6.55;;
73487;SDS011;61721;42.206;25.320;2024-02-23T00:02:54;11.18;;;6.45;;
73487;SDS011;61721;42.206;25.320;2024-02-23T00:05:23;9.68;;;6.32;;
73487;SDS011;61721;42.206;25.320;2024-02-23T00:07:51;10.80;;;6.53;;
73487;SDS011;61721;42.206;25.320;2024-02-23T00:10:20;12.32;;;6.60;;
73487;SDS011;61721;42.206;25.320;2024-02-23T00:12:47;10.77;;;6.60;;
73487;SDS011;61721;42.206;25.320;2024-02-23T00:15:14;10.88;;;6.57;;
73487;SDS011;61721;42.206;25.320;2024-02-23T00:17:42;11.18;;;6.15;;
73487;SDS011;61721;42.206;25.320;2024-02-23T00:20:10;11.90;;;6.60;;
73487;SDS011;61721;42.206;25.320;2024-02-23T00:22:38;11.35;;;6.13;;
73487;SDS011;61721;42.206;25.320;2024-02-23T00:25:05;13.55;;;6.30;;
73487;SDS011;61721;42.206;25.320;2024-02-23T00:27:34;10.75;;;5.90;;
73487;SDS011;61721;42.206;25.320;2024-02-23T00:30:03;9.63;;;6.15;;
73487;SDS011;61721;42.206;25.320;2024-02-23T00:32:37;9.73;;;6.03;;
73487;SDS011;61721;42.206;25.320;2024-02-23T00:35:11;11.70;;;6.50;;
73487;SDS011;61721;42.206;25.320;2024-02-23T00:37:38;13.18;;;6.85;;
73487;SDS011;61721;42.206;25.320;2024-02-23T00:40:06;12.60;;;6.93;;
73487;SDS011;61721;42.206;25.320;2024-02-23T00:42:37;10.43;;;6.25;;
73487;SDS011;61721;42.206;25.320;2024-02-23T00:45:05;11.07;;;6.70;;
73487;SDS011;61721;42.206;25.320;2024-02-23T00:47:34;12.57;;;7.28;;
73487;SDS011;61721;42.206;25.320;2024-02-23T00:50:02;11.63;;;6.40;;
73487;SDS011;61721;42.206;25.320;2024-02-23T00:52:30;10.93;;;6.68;;
73487;SDS011;61721;42.206;25.320;2024-02-23T00:54:58;10.60;;;6.50;;
73487;SDS011;61721;42.206;25.320;2024-02-23T00:57:25;11.18;;;6.82;;
73487;SDS011;61721;42.206;25.320;2024-02-23T00:59:56;11.80;;;6.70;;
73487;SDS011;61721;42.206;25.320;2024-02-23T01:02:24;11.13;;;6.35;;
73487;SDS011;61721;42.206;25.320;2024-02-23T01:04:51;11.52;;;6.70;;
73487;SDS011;61721;42.206;25.320;2024-02-23T01:07:22;11.20;;;6.72;;
73487;SDS011;61721;42.206;25.320;2024-02-23T01:09:49;11.20;;;6.57;;
73487;SDS011;61721;42.206;25.320;2024-02-23T01:12:17;12.30;;;7.00;;
73487;SDS011;61721;42.206;25.320;2024-02-23T01:14:44;12.85;;;7.40;;
73487;SDS011;61721;42.206;25.320;2024-02-23T01:17:15;10.65;;;6.47;;
73487;SDS011;61721;42.206;25.320;2024-02-23T01:19:43;9.48;;;6.38;;
73487;SDS011;61721;42.206;25.320;2024-02-23T01:22:10;10.45;;;5.88;;
73487;SDS011;61721;42.206;25.320;2024-02-23T01:24:40;12.65;;;6.65;;
73487;SDS011;61721;42.206;25.320;2024-02-23T01:27:07;10.60;;;6.15;;
73487;SDS011;61721;42.206;25.320;2024-02-23T01:29:35;11.57;;;5.70;;
73487;SDS011;61721;42.206;25.320;2024-02-23T01:32:02;10.52;;;5.80;;
73487;SDS011;61721;42.206;25.320;2024-02-23T01:34:31;10.82;;;6.03;;
73487;SDS011;61721;42.206;25.320;2024-02-23T01:36:59;11.55;;;6.35;;
73487;SDS011;61721;42.206;25.320;2024-02-23T01:39:26;11.65;;;6.32;;
73487;SDS011;61721;42.206;25.320;2024-02-23T01:41:53;12.50;;;6.88;;
73487;SDS011;61721;42.206;25.320;2024-02-23T01:44:21;12.00;;;6.60;;
73487;SDS011;61721;42.206;25.320;2024-02-23T01:46:49;11.38;;;6.47;;
73487;SDS011;61721;42.206;25.320;2024-02-23T01:49:16;9.45;;;5.82;;
73487;SDS011;61721;42.206;25.320;2024-02-23T01:51:46;11.75;;;6.07;;
73487;SDS011;61721;42.206;25.320;2024-02-23T01:54:14;11.68;;;6.22;;
73487;SDS011;61721;42.206;25.320;2024-02-23T01:56:48;10.73;;;6.72;;
73487;SDS011;61721;42.206;25.320;2024-02-23T01:59:22;11.43;;;6.38;;
73487;SDS011;61721;42.206;25.320;2024-02-23T02:01:50;12.55;;;6.50;;
73487;SDS011;61721;42.206;25.320;2024-02-23T02:04:17;11.32;;;6.30;;
73487;SDS011;61721;42.206;25.320;2024-02-23T02:06:47;10.05;;;5.65;;
73487;SDS011;61721;42.206;25.320;2024-02-23T02:09:15;12.63;;;6.65;;
73487;SDS011;61721;42.206;25.320;2024-02-23T02:11:46;10.48;;;5.95;;
73487;SDS011;61721;42.206;25.320;2024-02-23T02:14:14;13.50;;;6.28;;
73487;SDS011;61721;42.206;25.320;2024-02-23T02:16:41;10.48;;;5.88;;
73487;SDS011;61721;42.206;25.320;2024-02-23T02:19:10;10.65;;;6.40;;
73487;SDS011;61721;42.206;25.320;2024-02-23T02:21:38;9.80;;;5.90;;
73487;SDS011;61721;42.206;25.320;2024-02-23T02:24:07;12.70;;;6.50;;
73487;SDS011;61721;42.206;25.320;2024-02-23T02:26:35;10.45;;;5.90;;
73487;SDS011;61721;42.206;25.320;2024-02-23T02:29:03;10.00;;;5.75;;
73487;SDS011;61721;42.206;25.320;2024-02-23T02:31:31;11.80;;;6.10;;
73487;SDS011;61721;42.206;25.320;2024-02-23T02:34:03;10.75;;;6.55;;
73487;SDS011;61721;42.206;25.320;2024-02-23T02:36:30;9.77;;;5.72;;
73487;SDS011;61721;42.206;25.320;2024-02-23T02:38:58;12.05;;;6.55;;
73487;SDS011;61721;42.206;25.320;2024-02-23T02:41:27;10.63;;;6.60;;
73487;SDS011;61721;42.206;25.320;2024-02-23T02:43:56;9.60;;;5.32;;
73487;SDS011;61721;42.206;25.320;2024-02-23T02:46:23;10.60;;;5.90;;
73487;SDS011;61721;42.206;25.320;2024-02-23T02:48:51;10.60;;;6.60;;
73487;SDS011;61721;42.206;25.320;2024-02-23T02:51:18;10.45;;;6.05;;
73487;SDS011;61721;42.206;25.320;2024-02-23T02:53:46;12.40;;;6.30;;
73487;SDS011;61721;42.206;25.320;2024-02-23T02:56:13;11.27;;;6.63;;
73487;SDS011;61721;42.206;25.320;2024-02-23T02:58:42;10.07;;;5.60;;
73487;SDS011;61721;42.206;25.320;2024-02-23T03:01:10;11.43;;;6.88;;
73487;SDS011;61721;42.206;25.320;2024-02-23T03:03:37;12.65;;;9.05;;
73487;SDS011;61721;42.206;25.320;2024-02-23T03:06:05;9.95;;;6.10;;
73487;SDS011;61721;42.206;25.320;2024-02-23T03:08:33;12.02;;;5.43;;
73487;SDS011;61721;42.206;25.320;2024-02-23T03:11:00;10.77;;;6.47;;
73487;SDS011;61721;42.206;25.320;2024-02-23T03:13:28;11.00;;;5.95;;
73487;SDS011;61721;42.206;25.320;2024-02-23T03:15:58;9.68;;;5.60;;
73487;SDS011;61721;42.206;25.320;2024-02-23T03:18:26;10.48;;;6.53;;
73487;SDS011;61721;42.206;25.320;2024-02-23T03:20:54;13.32;;;7.20;;
73487;SDS011;61721;42.206;25.320;2024-02-23T03:23:22;28.45;;;12.75;;
73487;SDS011;61721;42.206;25.320;2024-02-23T03:25:49;18.17;;;8.73;;
73487;SDS011;61721;42.206;25.320;2024-02-23T03:28:16;16.63;;;8.75;;
73487;SDS011;61721;42.206;25.320;2024-02-23T03:30:44;15.70;;;8.20;;
73487;SDS011;61721;42.206;25.320;2024-02-23T03:33:12;15.27;;;6.75;;
73487;SDS011;61721;42.206;25.320;2024-02-23T03:35:40;10.38;;;6.03;;
73487;SDS011;61721;42.206;25.320;2024-02-23T03:38:07;9.50;;;5.80;;
73487;SDS011;61721;42.206;25.320;2024-02-23T03:40:35;7.50;;;5.05;;
73487;SDS011;61721;42.206;25.320;2024-02-23T03:43:02;13.57;;;6.55;;
73487;SDS011;61721;42.206;25.320;2024-02-23T03:45:31;10.35;;;6.00;;
73487;SDS011;61721;42.206;25.320;2024-02-23T03:47:58;8.82;;;5.60;;
73487;SDS011;61721;42.206;25.320;2024-02-23T03:50:28;12.35;;;6.95;;
73487;SDS011;61721;42.206;25.320;2024-02-23T03:52:55;14.68;;;7.07;;
73487;SDS011;61721;42.206;25.320;2024-02-23T03:55:23;14.10;;;7.63;;
73487;SDS011;61721;42.206;25.320;2024-02-23T03:57:50;11.40;;;6.30;;
73487;SDS011;61721;42.206;25.320;2024-02-23T04:00:17;9.95;;;6.30;;
73487;SDS011;61721;42.206;25.320;2024-02-23T04:02:48;11.25;;;6.05;;
73487;SDS011;61721;42.206;25.320;2024-02-23T04:05:16;9.40;;;5.38;;
73487;SDS011;61721;42.206;25.320;2024-02-23T04:07:45;10.30;;;5.90;;
73487;SDS011;61721;42.206;25.320;2024-02-23T04:10:13;16.60;;;6.60;;
73487;SDS011;61721;42.206;25.320;2024-02-23T04:12:41;10.98;;;6.63;;
73487;SDS011;61721;42.206;25.320;2024-02-23T04:15:09;15.52;;;7.40;;
73487;SDS011;61721;42.206;25.320;2024-02-23T04:17:36;20.63;;;7.82;;
73487;SDS011;61721;42.206;25.320;2024-02-23T04:20:05;17.27;;;8.32;;
73487;SDS011;61721;42.206;25.320;2024-02-23T04:22:35;17.88;;;8.45;;
73487;SDS011;61721;42.206;25.320;2024-02-23T04:25:04;17.70;;;8.38;;
73487;SDS011;61721;42.206;25.320;2024-02-23T04:27:32;11.63;;;6.30;;
73487;SDS011;61721;42.206;25.320;2024-02-23T04:29:59;13.43;;;6.82;;
73487;SDS011;61721;42.206;25.320;2024-02-23T04:32:27;10.07;;;6.20;;
73487;SDS011;61721;42.206;25.320;2024-02-23T04:34:54;12.35;;;6.72;;
73487;SDS011;61721;42.206;25.320;2024-02-23T04:37:22;11.77;;;6.90;;
73487;SDS011;61721;42.206;25.320;2024-02-23T04:39:50;11.23;;;6.43;;
73487;SDS011;61721;42.206;25.320;2024-02-23T04:42:18;11.73;;;6.35;;
73487;SDS011;61721;42.206;25.320;2024-02-23T04:44:46;10.77;;;6.28;;
73487;SDS011;61721;42.206;25.320;2024-02-23T04:47:14;12.68;;;7.28;;
73487;SDS011;61721;42.206;25.320;2024-02-23T04:49:42;13.05;;;7.35;;
73487;SDS011;61721;42.206;25.320;2024-02-23T04:52:09;13.32;;;7.88;;
73487;SDS011;61721;42.206;25.320;2024-02-23T04:54:37;13.18;;;7.45;;
73487;SDS011;61721;42.206;25.320;2024-02-23T04:57:04;11.68;;;6.50;;
73487;SDS011;61721;42.206;25.320;2024-02-23T04:59:33;10.68;;;6.22;;
73487;SDS011;61721;42.206;25.320;2024-02-23T05:02:00;18.50;;;7.25;;
73487;SDS011;61721;42.206;25.320;2024-02-23T05:04:27;13.18;;;6.75;;
73487;SDS011;61721;42.206;25.320;2024-02-23T05:06:55;14.73;;;6.95;;
73487;SDS011;61721;42.206;25.320;2024-02-23T05:09:22;19.15;;;7.60;;
73487;SDS011;61721;42.206;25.320;2024-02-23T05:11:50;14.35;;;7.85;;
73487;SDS011;61721;42.206;25.320;2024-02-23T05:14:17;19.08;;;11.57;;
73487;SDS011;61721;42.206;25.320;2024-02-23T05:16:46;16.20;;;10.02;;
73487;SDS011;61721;42.206;25.320;2024-02-23T05:19:14;23.98;;;13.23;;
73487;SDS011;61721;42.206;25.320;2024-02-23T05:21:41;22.70;;;13.05;;
73487;SDS011;61721;42.206;25.320;2024-02-23T05:24:10;20.38;;;10.88;;
73487;SDS011;61721;42.206;25.320;2024-02-23T05:26:38;16.95;;;9.10;;
73487;SDS011;61721;42.206;25.320;2024-02-23T05:29:05;13.52;;;8.23;;
73487;SDS011;61721;42.206;25.320;2024-02-23T05:34:22;11.32;;;6.75;;
73487;SDS011;61721;42.206;25.320;2024-02-23T05:36:50;13.30;;;7.82;;
73487;SDS011;61721;42.206;25.320;2024-02-23T05:39:17;15.00;;;8.85;;
73487;SDS011;61721;42.206;25.320;2024-02-23T05:41:44;13.73;;;9.07;;
73487;SDS011;61721;42.206;25.320;2024-02-23T05:44:12;14.77;;;8.40;;
73487;SDS011;61721;42.206;25.320;2024-02-23T05:46:42;13.93;;;8.55;;
73487;SDS011;61721;42.206;25.320;2024-02-23T05:49:11;15.10;;;8.00;;
73487;SDS011;61721;42.206;25.320;2024-02-23T05:51:39;12.48;;;8.00;;
73487;SDS011;61721;42.206;25.320;2024-02-23T05:54:06;16.95;;;8.90;;
73487;SDS011;61721;42.206;25.320;2024-02-23T05:56:34;15.85;;;8.90;;
73487;SDS011;61721;42.206;25.320;2024-02-23T05:59:02;14.55;;;8.60;;
73487;SDS011;61721;42.206;25.320;2024-02-23T06:01:31;15.75;;;9.85;;
73487;SDS011;61721;42.206;25.320;2024-02-23T06:03:59;15.52;;;7.85;;
73487;SDS011;61721;42.206;25.320;2024-02-23T06:06:28;12.20;;;7.10;;
73487;SDS011;61721;42.206;25.320;2024-02-23T06:11:23;16.98;;;7.53;;
73487;SDS011;61721;42.206;25.320;2024-02-23T06:13:50;17.75;;;6.53;;
73487;SDS011;61721;42.206;25.320;2024-02-23T06:16:18;57.28;;;7.57;;
73487;SDS011;61721;42.206;25.320;2024-02-23T06:18:45;23.17;;;7.40;;
73487;SDS011;61721;42.206;25.320;2024-02-23T06:21:16;13.98;;;6.22;;
73487;SDS011;61721;42.206;25.320;2024-02-23T06:23:45;16.10;;;6.15;;
73487;SDS011;61721;42.206;25.320;2024-02-23T06:26:13;9.18;;;6.05;;
73487;SDS011;61721;42.206;25.320;2024-02-23T06:28:40;12.32;;;6.35;;
73487;SDS011;61721;42.206;25.320;2024-02-23T06:31:08;12.57;;;6.93;;
73487;SDS011;61721;42.206;25.320;2024-02-23T06:33:36;11.70;;;6.68;;
73487;SDS011;61721;42.206;25.320;2024-02-23T06:36:05;14.23;;;6.65;;
73487;SDS011;61721;42.206;25.320;2024-02-23T06:38:33;13.52;;;6.18;;
73487;SDS011;61721;42.206;25.320;2024-02-23T06:41:02;11.55;;;7.05;;
73487;SDS011;61721;42.206;25.320;2024-02-23T06:43:31;12.27;;;6.50;;
73487;SDS011;61721;42.206;25.320;2024-02-23T06:45:58;11.30;;;7.20;;
73487;SDS011;61721;42.206;25.320;2024-02-23T06:48:25;11.15;;;6.63;;
73487;SDS011;61721;42.206;25.320;2024-02-23T06:50:53;11.63;;;6.72;;
73487;SDS011;61721;42.206;25.320;2024-02-23T06:53:20;13.45;;;7.32;;
73487;SDS011;61721;42.206;25.320;2024-02-23T06:55:47;11.63;;;6.97;;
73487;SDS011;61721;42.206;25.320;2024-02-23T06:58:16;19.00;;;8.07;;
73487;SDS011;61721;42.206;25.320;2024-02-23T07:00:43;15.52;;;7.82;;
73487;SDS011;61721;42.206;25.320;2024-02-23T07:03:11;13.85;;;8.68;;
73487;SDS011;61721;42.206;25.320;2024-02-23T07:05:39;14.25;;;8.15;;
73487;SDS011;61721;42.206;25.320;2024-02-23T07:08:15;14.32;;;8.90;;
73487;SDS011;61721;42.206;25.320;2024-02-23T07:10:43;20.00;;;8.45;;
73487;SDS011;61721;42.206;25.320;2024-02-23T07:13:11;12.30;;;8.23;;
73487;SDS011;61721;42.206;25.320;2024-02-23T07:15:39;12.32;;;7.90;;
73487;SDS011;61721;42.206;25.320;2024-02-23T07:18:07;15.60;;;9.38;;
73487;SDS011;61721;42.206;25.320;2024-02-23T07:20:35;14.43;;;8.38;;
73487;SDS011;61721;42.206;25.320;2024-02-23T07:23:02;16.02;;;10.10;;
73487;SDS011;61721;42.206;25.320;2024-02-23T07:25:30;21.30;;;10.23;;
73487;SDS011;61721;42.206;25.320;2024-02-23T07:27:57;14.40;;;9.13;;
73487;SDS011;61721;42.206;25.320;2024-02-23T07:30:24;17.00;;;8.73;;
73487;SDS011;61721;42.206;25.320;2024-02-23T07:32:53;16.08;;;9.30;;
73487;SDS011;61721;42.206;25.320;2024-02-23T07:35:21;14.65;;;8.75;;
73487;SDS011;61721;42.206;25.320;2024-02-23T07:37:48;32.88;;;18.00;;
73487;SDS011;61721;42.206;25.320;2024-02-23T07:40:15;24.83;;;11.70;;
73487;SDS011;61721;42.206;25.320;2024-02-23T07:42:43;19.17;;;11.57;;
73487;SDS011;61721;42.206;25.320;2024-02-23T07:45:10;16.23;;;10.30;;
73487;SDS011;61721;42.206;25.320;2024-02-23T07:47:38;16.85;;;9.93;;
73487;SDS011;61721;42.206;25.320;2024-02-23T07:50:07;14.20;;;9.73;;
73487;SDS011;61721;42.206;25.320;2024-02-23T07:52:35;17.10;;;9.95;;
73487;SDS011;61721;42.206;25.320;2024-02-23T07:55:03;14.23;;;9.38;;
73487;SDS011;61721;42.206;25.320;2024-02-23T07:57:31;16.30;;;9.48;;
73487;SDS011;61721;42.206;25.320;2024-02-23T07:59:58;13.80;;;9.38;;
73487;SDS011;61721;42.206;25.320;2024-02-23T08:02:25;13.40;;;8.95;;
73487;SDS011;61721;42.206;25.320;2024-02-23T08:04:53;13.45;;;8.52;;
73487;SDS011;61721;42.206;25.320;2024-02-23T08:07:22;12.68;;;8.35;;
73487;SDS011;61721;42.206;25.320;2024-02-23T08:09:51;12.75;;;9.02;;
73487;SDS011;61721;42.206;25.320;2024-02-23T08:12:18;12.55;;;8.25;;
73487;SDS011;61721;42.206;25.320;2024-02-23T08:14:46;13.70;;;9.15;;
73487;SDS011;61721;42.206;25.320;2024-02-23T08:17:14;19.20;;;8.90;;
73487;SDS011;61721;42.206;25.320;2024-02-23T08:19:42;15.85;;;8.23;;
73487;SDS011;61721;42.206;25.320;2024-02-23T08:22:10;12.85;;;8.98;;
73487;SDS011;61721;42.206;25.320;2024-02-23T08:24:39;21.30;;;8.40;;
73487;SDS011;61721;42.206;25.320;2024-02-23T08:27:07;12.85;;;8.40;;
73487;SDS011;61721;42.206;25.320;2024-02-23T08:29:37;13.13;;;8.32;;
73487;SDS011;61721;42.206;25.320;2024-02-23T08:32:05;12.70;;;8.43;;
73487;SDS011;61721;42.206;25.320;2024-02-23T08:34:33;13.15;;;7.93;;
73487;SDS011;61721;42.206;25.320;2024-02-23T08:37:00;12.45;;;8.80;;
73487;SDS011;61721;42.206;25.320;2024-02-23T08:39:28;11.88;;;8.68;;
73487;SDS011;61721;42.206;25.320;2024-02-23T08:41:57;15.93;;;8.90;;
73487;SDS011;61721;42.206;25.320;2024-02-23T08:44:24;12.75;;;9.77;;
73487;SDS011;61721;42.206;25.320;2024-02-23T08:46:51;13.65;;;9.07;;
73487;SDS011;61721;42.206;25.320;2024-02-23T08:49:19;13.23;;;8.88;;
73487;SDS011;61721;42.206;25.320;2024-02-23T08:51:47;14.13;;;8.45;;
73487;SDS011;61721;42.206;25.320;2024-02-23T08:54:14;9.93;;;7.40;;
73487;SDS011;61721;42.206;25.320;2024-02-23T08:56:42;11.80;;;8.43;;
73487;SDS011;61721;42.206;25.320;2024-02-23T08:59:10;26.95;;;8.85;;
73487;SDS011;61721;42.206;25.320;2024-02-23T09:01:38;11.32;;;7.70;;
73487;SDS011;61721;42.206;25.320;2024-02-23T09:04:05;11.38;;;8.90;;
73487;SDS011;61721;42.206;25.320;2024-02-23T09:06:33;12.45;;;7.88;;
73487;SDS011;61721;42.206;25.320;2024-02-23T09:09:00;11.68;;;7.70;;
73487;SDS011;61721;42.206;25.320;2024-02-23T09:11:27;12.82;;;9.05;;
73487;SDS011;61721;42.206;25.320;2024-02-23T09:13:55;11.68;;;7.90;;
73487;SDS011;61721;42.206;25.320;2024-02-23T09:16:24;14.13;;;7.85;;
73487;SDS011;61721;42.206;25.320;2024-02-23T09:18:51;10.60;;;7.80;;
73487;SDS011;61721;42.206;25.320;2024-02-23T09:21:18;11.43;;;7.72;;
73487;SDS011;61721;42.206;25.320;2024-02-23T09:23:46;11.63;;;8.20;;
73487;SDS011;61721;42.206;25.320;2024-02-23T09:26:13;12.00;;;8.73;;
73487;SDS011;61721;42.206;25.320;2024-02-23T09:28:41;11.73;;;8.55;;
73487;SDS011;61721;42.206;25.320;2024-02-23T09:31:10;13.35;;;8.40;;
73487;SDS011;61721;42.206;25.320;2024-02-23T09:33:40;11.57;;;8.23;;
73487;SDS011;61721;42.206;25.320;2024-02-23T09:36:09;10.48;;;7.55;;
73487;SDS011;61721;42.206;25.320;2024-02-23T09:38:36;10.55;;;8.02;;
73487;SDS011;61721;42.206;25.320;2024-02-23T09:41:04;10.25;;;8.02;;
73487;SDS011;61721;42.206;25.320;2024-02-23T09:43:37;9.88;;;7.95;;
73487;SDS011;61721;42.206;25.320;2024-02-23T09:46:05;9.77;;;7.60;;
73487;SDS011;61721;42.206;25.320;2024-02-23T09:48:32;14.15;;;7.70;;
73487;SDS011;61721;42.206;25.320;2024-02-23T09:51:02;10.23;;;7.80;;
73487;SDS011;61721;42.206;25.320;2024-02-23T09:53:31;10.43;;;8.13;;
73487;SDS011;61721;42.206;25.320;2024-02-23T09:56:00;11.13;;;7.93;;
73487;SDS011;61721;42.206;25.320;2024-02-23T09:58:29;11.15;;;7.72;;
73487;SDS011;61721;42.206;25.320;2024-02-23T10:00:57;15.32;;;7.80;;
73487;SDS011;61721;42.206;25.320;2024-02-23T10:03:26;18.30;;;9.85;;
73487;SDS011;61721;42.206;25.320;2024-02-23T10:05:55;9.73;;;7.63;;
73487;SDS011;61721;42.206;25.320;2024-02-23T10:08:25;9.02;;;7.30;;
73487;SDS011;61721;42.206;25.320;2024-02-23T10:10:52;12.50;;;7.28;;
73487;SDS011;61721;42.206;25.320;2024-02-23T10:13:19;9.05;;;7.15;;
73487;SDS011;61721;42.206;25.320;2024-02-23T10:15:48;12.27;;;6.85;;
73487;SDS011;61721;42.206;25.320;2024-02-23T10:18:15;13.38;;;6.55;;
73487;SDS011;61721;42.206;25.320;2024-02-23T10:20:43;7.40;;;6.10;;
73487;SDS011;61721;42.206;25.320;2024-02-23T10:23:10;8.77;;;6.57;;
73487;SDS011;61721;42.206;25.320;2024-02-23T10:25:40;11.68;;;6.47;;
73487;SDS011;61721;42.206;25.320;2024-02-23T10:33:03;7.88;;;5.18;;
73487;SDS011;61721;42.206;25.320;2024-02-23T10:35:32;8.30;;;5.78;;
73487;SDS011;61721;42.206;25.320;2024-02-23T10:38:04;6.70;;;5.53;;
73487;SDS011;61721;42.206;25.320;2024-02-23T10:40:35;6.65;;;5.25;;
73487;SDS011;61721;42.206;25.320;2024-02-23T10:43:10;6.60;;;5.07;;
73487;SDS011;61721;42.206;25.320;2024-02-23T10:45:39;6.78;;;4.68;;
73487;SDS011;61721;42.206;25.320;2024-02-23T10:48:08;6.03;;;4.53;;
73487;SDS011;61721;42.206;25.320;2024-02-23T10:50:36;8.27;;;4.53;;
73487;SDS011;61721;42.206;25.320;2024-02-23T10:53:05;8.23;;;4.50;;
73487;SDS011;61721;42.206;25.320;2024-02-23T10:55:35;5.57;;;4.00;;
73487;SDS011;61721;42.206;25.320;2024-02-23T10:58:04;7.70;;;4.63;;
73487;SDS011;61721;42.206;25.320;2024-02-23T11:00:37;6.00;;;4.30;;
73487;SDS011;61721;42.206;25.320;2024-02-23T11:03:05;5.50;;;4.07;;
73487;SDS011;61721;42.206;25.320;2024-02-23T11:05:34;5.75;;;3.90;;
73487;SDS011;61721;42.206;25.320;2024-02-23T11:08:01;4.68;;;3.50;;
73487;SDS011;61721;42.206;25.320;2024-02-23T11:10:29;5.07;;;3.70;;
73487;SDS011;61721;42.206;25.320;2024-02-23T11:12:59;19.38;;;4.43;;
73487;SDS011;61721;42.206;25.320;2024-02-23T11:15:28;6.72;;;3.90;;
73487;SDS011;61721;42.206;25.320;2024-02-23T11:18:00;9.77;;;3.97;;
73487;SDS011;61721;42.206;25.320;2024-02-23T11:20:34;6.45;;;3.55;;
73487;SDS011;61721;42.206;25.320;2024-02-23T11:23:01;7.32;;;3.85;;
73487;SDS011;61721;42.206;25.320;2024-02-23T11:25:40;7.28;;;5.10;;
73487;SDS011;61721;42.206;25.320;2024-02-23T11:28:08;6.03;;;4.28;;
73487;SDS011;61721;42.206;25.320;2024-02-23T11:30:35;5.30;;;3.90;;
73487;SDS011;61721;42.206;25.320;2024-02-23T11:33:07;10.35;;;4.05;;
73487;SDS011;61721;42.206;25.320;2024-02-23T11:35:35;6.80;;;3.78;;
73487;SDS011;61721;42.206;25.320;2024-02-23T11:38:14;5.55;;;3.42;;
73487;SDS011;61721;42.206;25.320;2024-02-23T11:40:43;5.72;;;3.72;;
73487;SDS011;61721;42.206;25.320;2024-02-23T11:43:12;5.90;;;3.80;;
73487;SDS011;61721;42.206;25.320;2024-02-23T11:45:39;6.63;;;3.30;;
73487;SDS011;61721;42.206;25.320;2024-02-23T11:48:09;7.30;;;3.15;;
73487;SDS011;61721;42.206;25.320;2024-02-23T11:50:36;4.45;;;3.17;;
73487;SDS011;61721;42.206;25.320;2024-02-23T11:53:04;7.60;;;4.50;;
73487;SDS011;61721;42.206;25.320;2024-02-23T11:55:31;5.10;;;3.60;;
73487;SDS011;61721;42.206;25.320;2024-02-23T11:57:58;4.68;;;3.20;;
73487;SDS011;61721;42.206;25.320;2024-02-23T12:00:26;4.78;;;3.40;;
73487;SDS011;61721;42.206;25.320;2024-02-23T12:02:55;5.35;;;3.00;;
73487;SDS011;61721;42.206;25.320;2024-02-23T12:05:24;5.57;;;3.50;;
73487;SDS011;61721;42.206;25.320;2024-02-23T12:07:52;6.03;;;3.20;;
73487;SDS011;61721;42.206;25.320;2024-02-23T12:10:27;6.07;;;3.15;;
73487;SDS011;61721;42.206;25.320;2024-02-23T12:12:54;4.45;;;3.03;;
73487;SDS011;61721;42.206;25.320;2024-02-23T12:15:22;6.15;;;3.28;;
73487;SDS011;61721;42.206;25.320;2024-02-23T12:17:49;4.78;;;3.08;;
73487;SDS011;61721;42.206;25.320;2024-02-23T12:20:17;4.85;;;2.88;;
73487;SDS011;61721;42.206;25.320;2024-02-23T12:22:48;5.53;;;3.13;;
73487;SDS011;61721;42.206;25.320;2024-02-23T12:25:15;4.55;;;3.05;;
73487;SDS011;61721;42.206;25.320;2024-02-23T12:27:43;4.90;;;2.85;;
73487;SDS011;61721;42.206;25.320;2024-02-23T12:30:13;5.43;;;3.08;;
73487;SDS011;61721;42.206;25.320;2024-02-23T12:32:41;5.30;;;3.10;;
73487;SDS011;61721;42.206;25.320;2024-02-23T12:35:10;4.38;;;2.80;;
73487;SDS011;61721;42.206;25.320;2024-02-23T12:37:38;5.13;;;3.13;;
73487;SDS011;61721;42.206;25.320;2024-02-23T12:40:09;5.53;;;3.00;;
73487;SDS011;61721;42.206;25.320;2024-02-23T12:42:36;4.90;;;3.20;;
73487;SDS011;61721;42.206;25.320;2024-02-23T12:45:04;4.95;;;2.80;;
73487;SDS011;61721;42.206;25.320;2024-02-23T12:47:32;4.60;;;2.83;;
73487;SDS011;61721;42.206;25.320;2024-02-23T12:49:59;4.65;;;2.90;;
73487;SDS011;61721;42.206;25.320;2024-02-23T12:52:27;5.47;;;3.10;;
73487;SDS011;61721;42.206;25.320;2024-02-23T12:54:54;4.35;;;2.88;;
73487;SDS011;61721;42.206;25.320;2024-02-23T12:57:34;5.65;;;2.75;;
73487;SDS011;61721;42.206;25.320;2024-02-23T13:00:15;5.25;;;2.85;;
73487;SDS011;61721;42.206;25.320;2024-02-23T13:02:43;4.70;;;2.60;;
73487;SDS011;61721;42.206;25.320;2024-02-23T13:05:11;4.53;;;2.40;;
73487;SDS011;61721;42.206;25.320;2024-02-23T13:07:38;4.15;;;2.38;;
73487;SDS011;61721;42.206;25.320;2024-02-23T13:10:07;5.38;;;2.97;;
73487;SDS011;61721;42.206;25.320;2024-02-23T13:12:37;4.05;;;2.35;;
73487;SDS011;61721;42.206;25.320;2024-02-23T13:15:04;4.85;;;2.67;;
73487;SDS011;61721;42.206;25.320;2024-02-23T13:17:32;6.28;;;2.72;;
73487;SDS011;61721;42.206;25.320;2024-02-23T13:20:00;4.25;;;2.70;;
73487;SDS011;61721;42.206;25.320;2024-02-23T13:22:27;4.45;;;2.95;;
73487;SDS011;61721;42.206;25.320;2024-02-23T13:24:54;4.78;;;2.70;;
73487;SDS011;61721;42.206;25.320;2024-02-23T13:27:22;4.07;;;2.28;;
73487;SDS011;61721;42.206;25.320;2024-02-23T13:29:51;4.05;;;2.13;;
73487;SDS011;61721;42.206;25.320;2024-02-23T13:32:18;4.38;;;2.67;;
73487;SDS011;61721;42.206;25.320;2024-02-23T13:34:46;4.85;;;2.72;;
73487;SDS011;61721;42.206;25.320;2024-02-23T13:37:17;3.78;;;2.10;;
73487;SDS011;61721;42.206;25.320;2024-02-23T13:39:45;7.72;;;3.80;;
73487;SDS011;61721;42.206;25.320;2024-02-23T13:42:12;4.10;;;2.30;;
73487;SDS011;61721;42.206;25.320;2024-02-23T13:44:39;4.20;;;2.25;;
73487;SDS011;61721;42.206;25.320;2024-02-23T13:47:08;3.97;;;2.20;;
73487;SDS011;61721;42.206;25.320;2024-02-23T13:49:38;4.40;;;2.40;;
73487;SDS011;61721;42.206;25.320;2024-02-23T13:52:06;4.30;;;2.22;;
73487;SDS011;61721;42.206;25.320;2024-02-23T13:54:33;4.80;;;2.60;;
73487;SDS011;61721;42.206;25.320;2024-02-23T13:57:01;4.38;;;2.55;;
73487;SDS011;61721;42.206;25.320;2024-02-23T13:59:28;10.00;;;4.20;;
73487;SDS011;61721;42.206;25.320;2024-02-23T14:01:56;8.60;;;4.32;;
73487;SDS011;61721;42.206;25.320;2024-02-23T14:04:25;3.97;;;1.98;;
73487;SDS011;61721;42.206;25.320;2024-02-23T14:06:53;5.18;;;2.53;;
73487;SDS011;61721;42.206;25.320;2024-02-23T14:09:20;5.88;;;2.00;;
73487;SDS011;61721;42.206;25.320;2024-02-23T14:11:48;3.78;;;1.83;;
73487;SDS011;61721;42.206;25.320;2024-02-23T14:14:15;4.55;;;2.30;;
73487;SDS011;61721;42.206;25.320;2024-02-23T14:16:43;5.57;;;2.25;;
73487;SDS011;61721;42.206;25.320;2024-02-23T14:19:11;6.25;;;2.40;;
73487;SDS011;61721;42.206;25.320;2024-02-23T14:21:39;5.32;;;2.50;;
73487;SDS011;61721;42.206;25.320;2024-02-23T14:24:07;4.13;;;2.38;;
73487;SDS011;61721;42.206;25.320;2024-02-23T14:26:34;4.38;;;2.17;;
73487;SDS011;61721;42.206;25.320;2024-02-23T14:29:01;5.63;;;2.67;;
73487;SDS011;61721;42.206;25.320;2024-02-23T14:31:29;4.32;;;2.30;;
73487;SDS011;61721;42.206;25.320;2024-02-23T14:33:57;5.65;;;2.58;;
73487;SDS011;61721;42.206;25.320;2024-02-23T14:36:24;4.80;;;2.40;;
73487;SDS011;61721;42.206;25.320;2024-02-23T14:38:53;6.50;;;2.38;;
73487;SDS011;61721;42.206;25.320;2024-02-23T14:43:48;4.20;;;2.50;;